sensor_id;sensor_type;location;lat;lon;timestamp;P1;durP1;ratioP1;P2;durP2;ratioP2
6031;SDS011;3044;43.232;27.972;2023-07-20T00:01:46;5.33;;;4.83;;
6031;SDS011;3044;43.232;27.972;2023-07-20T00:04:14;9.63;;;5.70;;
6031;SDS011;3044;43.232;27.972;2023-07-20T00:06:41;6.50;;;5.67;;
6031;SDS011;3044;43.232;27.972;2023-07-20T00:09:08;6.60;;;5.50;;
6031;SDS011;3044;43.232;27.972;2023-07-20T00:11:36;6.77;;;5.70;;
6031;SDS011;3044;43.232;27.972;2023-07-20T00:14:04;8.03;;;5.27;;
6031;SDS011;3044;43.232;27.972;2023-07-20T00:16:33;7.63;;;5.40;;
6031;SDS011;3044;43.232;27.972;2023-07-20T00:19:00;19.53;;;6.87;;
6031;SDS011;3044;43.232;27.972;2023-07-20T00:21:27;10.70;;;5.60;;
6031;SDS011;3044;43.232;27.972;2023-07-20T00:23:54;6.27;;;5.67;;
6031;SDS011;3044;43.232;27.972;2023-07-20T00:26:21;10.40;;;6.47;;
6031;SDS011;3044;43.232;27.972;2023-07-20T00:28:49;11.80;;;6.00;;
6031;SDS011;3044;43.232;27.972;2023-07-20T00:31:17;11.37;;;5.37;;
6031;SDS011;3044;43.232;27.972;2023-07-20T00:33:45;5.70;;;4.80;;
6031;SDS011;3044;43.232;27.972;2023-07-20T00:36:12;8.37;;;5.93;;
6031;SDS011;3044;43.232;27.972;2023-07-20T00:38:39;6.47;;;5.83;;
6031;SDS011;3044;43.232;27.972;2023-07-20T00:41:06;8.70;;;5.93;;
6031;SDS011;3044;43.232;27.972;2023-07-20T00:43:34;9.80;;;7.17;;
6031;SDS011;3044;43.232;27.972;2023-07-20T00:46:01;13.70;;;6.13;;
6031;SDS011;3044;43.232;27.972;2023-07-20T00:48:29;8.33;;;5.30;;
6031;SDS011;3044;43.232;27.972;2023-07-20T00:50:57;9.63;;;6.10;;
6031;SDS011;3044;43.232;27.972;2023-07-20T00:53:26;8.70;;;5.90;;
6031;SDS011;3044;43.232;27.972;2023-07-20T00:55:53;6.47;;;5.60;;
6031;SDS011;3044;43.232;27.972;2023-07-20T00:58:21;6.23;;;4.97;;
6031;SDS011;3044;43.232;27.972;2023-07-20T01:00:49;8.97;;;5.50;;
6031;SDS011;3044;43.232;27.972;2023-07-20T01:03:17;5.60;;;5.20;;
6031;SDS011;3044;43.232;27.972;2023-07-20T01:05:46;5.33;;;4.80;;
6031;SDS011;3044;43.232;27.972;2023-07-20T01:08:24;10.20;;;5.50;;
6031;SDS011;3044;43.232;27.972;2023-07-20T01:10:57;16.07;;;6.30;;
6031;SDS011;3044;43.232;27.972;2023-07-20T01:13:33;21.10;;;6.27;;
6031;SDS011;3044;43.232;27.972;2023-07-20T01:16:00;8.33;;;5.13;;
6031;SDS011;3044;43.232;27.972;2023-07-20T01:18:28;13.20;;;5.70;;
6031;SDS011;3044;43.232;27.972;2023-07-20T01:21:00;7.80;;;5.80;;
6031;SDS011;3044;43.232;27.972;2023-07-20T01:27:11;10.30;;;5.93;;
6031;SDS011;3044;43.232;27.972;2023-07-20T01:30:03;7.77;;;5.43;;
6031;SDS011;3044;43.232;27.972;2023-07-20T01:32:43;13.60;;;5.90;;
6031;SDS011;3044;43.232;27.972;2023-07-20T01:35:13;11.83;;;5.60;;
6031;SDS011;3044;43.232;27.972;2023-07-20T01:37:43;6.53;;;5.77;;
6031;SDS011;3044;43.232;27.972;2023-07-20T01:40:12;14.70;;;5.70;;
6031;SDS011;3044;43.232;27.972;2023-07-20T01:42:43;18.60;;;5.60;;
6031;SDS011;3044;43.232;27.972;2023-07-20T01:45:11;9.70;;;4.63;;
6031;SDS011;3044;43.232;27.972;2023-07-20T01:47:38;6.90;;;5.40;;
6031;SDS011;3044;43.232;27.972;2023-07-20T01:50:07;5.73;;;5.23;;
6031;SDS011;3044;43.232;27.972;2023-07-20T01:52:35;18.60;;;5.80;;
6031;SDS011;3044;43.232;27.972;2023-07-20T01:55:02;5.47;;;4.67;;
6031;SDS011;3044;43.232;27.972;2023-07-20T01:57:30;20.80;;;5.77;;
6031;SDS011;3044;43.232;27.972;2023-07-20T01:59:58;4.80;;;4.50;;
6031;SDS011;3044;43.232;27.972;2023-07-20T02:02:26;7.57;;;5.20;;
6031;SDS011;3044;43.232;27.972;2023-07-20T02:04:54;13.50;;;5.80;;
6031;SDS011;3044;43.232;27.972;2023-07-20T02:07:22;9.63;;;5.60;;
6031;SDS011;3044;43.232;27.972;2023-07-20T02:09:49;5.67;;;5.10;;
6031;SDS011;3044;43.232;27.972;2023-07-20T02:12:17;8.50;;;5.87;;
6031;SDS011;3044;43.232;27.972;2023-07-20T02:14:44;5.80;;;5.30;;
6031;SDS011;3044;43.232;27.972;2023-07-20T02:17:11;5.87;;;5.37;;
6031;SDS011;3044;43.232;27.972;2023-07-20T02:19:38;6.60;;;5.60;;
6031;SDS011;3044;43.232;27.972;2023-07-20T02:22:07;14.83;;;6.17;;
6031;SDS011;3044;43.232;27.972;2023-07-20T02:24:35;9.33;;;5.80;;
6031;SDS011;3044;43.232;27.972;2023-07-20T02:27:03;15.77;;;6.07;;
6031;SDS011;3044;43.232;27.972;2023-07-20T02:29:30;17.97;;;5.90;;
6031;SDS011;3044;43.232;27.972;2023-07-20T02:31:57;14.83;;;6.43;;
6031;SDS011;3044;43.232;27.972;2023-07-20T02:34:24;14.50;;;6.60;;
6031;SDS011;3044;43.232;27.972;2023-07-20T02:36:51;8.10;;;6.60;;
6031;SDS011;3044;43.232;27.972;2023-07-20T02:39:21;8.47;;;6.80;;
6031;SDS011;3044;43.232;27.972;2023-07-20T02:41:49;10.13;;;6.73;;
6031;SDS011;3044;43.232;27.972;2023-07-20T02:44:17;8.00;;;6.40;;
6031;SDS011;3044;43.232;27.972;2023-07-20T02:46:44;7.03;;;6.33;;
6031;SDS011;3044;43.232;27.972;2023-07-20T02:49:11;8.53;;;6.17;;
6031;SDS011;3044;43.232;27.972;2023-07-20T02:51:38;11.20;;;6.30;;
6031;SDS011;3044;43.232;27.972;2023-07-20T02:54:05;9.30;;;6.17;;
6031;SDS011;3044;43.232;27.972;2023-07-20T02:56:32;15.23;;;6.87;;
6031;SDS011;3044;43.232;27.972;2023-07-20T02:59:02;11.00;;;6.50;;
6031;SDS011;3044;43.232;27.972;2023-07-20T03:01:29;15.43;;;6.67;;
6031;SDS011;3044;43.232;27.972;2023-07-20T03:03:56;11.07;;;6.80;;
6031;SDS011;3044;43.232;27.972;2023-07-20T03:06:23;21.87;;;7.57;;
6031;SDS011;3044;43.232;27.972;2023-07-20T03:08:50;12.20;;;6.57;;
6031;SDS011;3044;43.232;27.972;2023-07-20T03:11:18;8.10;;;6.87;;
6031;SDS011;3044;43.232;27.972;2023-07-20T03:13:46;11.80;;;6.47;;
6031;SDS011;3044;43.232;27.972;2023-07-20T03:16:17;14.07;;;6.43;;
6031;SDS011;3044;43.232;27.972;2023-07-20T03:18:45;21.27;;;6.30;;
6031;SDS011;3044;43.232;27.972;2023-07-20T03:21:12;16.77;;;5.93;;
6031;SDS011;3044;43.232;27.972;2023-07-20T03:23:40;31.63;;;6.60;;
6031;SDS011;3044;43.232;27.972;2023-07-20T03:26:08;17.10;;;6.40;;
6031;SDS011;3044;43.232;27.972;2023-07-20T03:28:35;19.13;;;6.33;;
6031;SDS011;3044;43.232;27.972;2023-07-20T03:31:02;19.57;;;6.50;;
6031;SDS011;3044;43.232;27.972;2023-07-20T03:33:31;26.47;;;7.47;;
6031;SDS011;3044;43.232;27.972;2023-07-20T03:35:59;20.47;;;6.80;;
6031;SDS011;3044;43.232;27.972;2023-07-20T03:38:26;17.93;;;5.90;;
6031;SDS011;3044;43.232;27.972;2023-07-20T03:40:54;18.90;;;5.00;;
6031;SDS011;3044;43.232;27.972;2023-07-20T03:43:22;14.60;;;6.37;;
6031;SDS011;3044;43.232;27.972;2023-07-20T03:45:50;13.20;;;6.07;;
6031;SDS011;3044;43.232;27.972;2023-07-20T03:48:18;7.97;;;5.53;;
6031;SDS011;3044;43.232;27.972;2023-07-20T03:50:48;22.27;;;5.90;;
6031;SDS011;3044;43.232;27.972;2023-07-20T03:53:17;16.47;;;6.57;;
6031;SDS011;3044;43.232;27.972;2023-07-20T03:55:44;15.63;;;6.43;;
6031;SDS011;3044;43.232;27.972;2023-07-20T03:58:11;19.13;;;6.37;;
6031;SDS011;3044;43.232;27.972;2023-07-20T04:00:39;22.33;;;6.77;;
6031;SDS011;3044;43.232;27.972;2023-07-20T04:03:06;17.47;;;6.70;;
6031;SDS011;3044;43.232;27.972;2023-07-20T04:05:33;13.47;;;5.70;;
6031;SDS011;3044;43.232;27.972;2023-07-20T04:08:01;18.83;;;7.83;;
6031;SDS011;3044;43.232;27.972;2023-07-20T04:10:29;14.27;;;7.40;;
6031;SDS011;3044;43.232;27.972;2023-07-20T04:12:56;16.60;;;6.67;;
6031;SDS011;3044;43.232;27.972;2023-07-20T04:15:23;18.33;;;6.23;;
6031;SDS011;3044;43.232;27.972;2023-07-20T04:17:50;19.17;;;7.80;;
6031;SDS011;3044;43.232;27.972;2023-07-20T04:20:17;19.60;;;7.20;;
6031;SDS011;3044;43.232;27.972;2023-07-20T04:22:44;11.40;;;7.10;;
6031;SDS011;3044;43.232;27.972;2023-07-20T04:25:13;12.37;;;6.77;;
6031;SDS011;3044;43.232;27.972;2023-07-20T04:27:40;19.10;;;8.33;;
6031;SDS011;3044;43.232;27.972;2023-07-20T04:30:07;12.53;;;7.23;;
6031;SDS011;3044;43.232;27.972;2023-07-20T04:32:35;12.90;;;6.93;;
6031;SDS011;3044;43.232;27.972;2023-07-20T04:35:05;20.27;;;6.80;;
6031;SDS011;3044;43.232;27.972;2023-07-20T04:37:33;19.47;;;6.77;;
6031;SDS011;3044;43.232;27.972;2023-07-20T04:40:00;36.47;;;7.57;;
6031;SDS011;3044;43.232;27.972;2023-07-20T04:42:30;28.30;;;8.40;;
6031;SDS011;3044;43.232;27.972;2023-07-20T04:44:57;17.80;;;6.83;;
6031;SDS011;3044;43.232;27.972;2023-07-20T04:47:24;29.40;;;7.67;;
6031;SDS011;3044;43.232;27.972;2023-07-20T04:49:51;27.73;;;8.67;;
6031;SDS011;3044;43.232;27.972;2023-07-20T04:52:18;39.53;;;12.57;;
6031;SDS011;3044;43.232;27.972;2023-07-20T04:54:45;48.97;;;15.13;;
6031;SDS011;3044;43.232;27.972;2023-07-20T04:57:12;48.03;;;14.90;;
6031;SDS011;3044;43.232;27.972;2023-07-20T04:59:41;15.93;;;7.23;;
6031;SDS011;3044;43.232;27.972;2023-07-20T05:02:08;21.37;;;7.53;;
6031;SDS011;3044;43.232;27.972;2023-07-20T05:04:35;17.37;;;6.70;;
6031;SDS011;3044;43.232;27.972;2023-07-20T05:07:02;43.60;;;7.77;;
6031;SDS011;3044;43.232;27.972;2023-07-20T05:09:30;20.13;;;6.10;;
6031;SDS011;3044;43.232;27.972;2023-07-20T05:11:57;24.63;;;6.13;;
6031;SDS011;3044;43.232;27.972;2023-07-20T05:14:24;27.33;;;5.63;;
6031;SDS011;3044;43.232;27.972;2023-07-20T05:16:53;33.90;;;7.67;;
6031;SDS011;3044;43.232;27.972;2023-07-20T05:19:20;20.53;;;5.87;;
6031;SDS011;3044;43.232;27.972;2023-07-20T05:21:47;22.33;;;6.43;;
6031;SDS011;3044;43.232;27.972;2023-07-20T05:24:14;15.70;;;5.80;;
6031;SDS011;3044;43.232;27.972;2023-07-20T05:26:41;27.77;;;7.20;;
6031;SDS011;3044;43.232;27.972;2023-07-20T05:29:08;18.53;;;7.10;;
6031;SDS011;3044;43.232;27.972;2023-07-20T05:31:35;14.57;;;6.40;;
6031;SDS011;3044;43.232;27.972;2023-07-20T05:34:04;26.27;;;7.23;;
6031;SDS011;3044;43.232;27.972;2023-07-20T05:36:31;26.13;;;7.80;;
6031;SDS011;3044;43.232;27.972;2023-07-20T05:38:58;20.67;;;6.33;;
6031;SDS011;3044;43.232;27.972;2023-07-20T05:41:25;32.73;;;6.83;;
6031;SDS011;3044;43.232;27.972;2023-07-20T05:43:52;27.57;;;6.50;;
6031;SDS011;3044;43.232;27.972;2023-07-20T05:46:19;32.43;;;6.23;;
6031;SDS011;3044;43.232;27.972;2023-07-20T05:48:46;28.40;;;6.03;;
6031;SDS011;3044;43.232;27.972;2023-07-20T05:51:15;11.80;;;5.30;;
6031;SDS011;3044;43.232;27.972;2023-07-20T05:53:42;22.00;;;6.20;;
6031;SDS011;3044;43.232;27.972;2023-07-20T05:56:09;32.50;;;8.17;;
6031;SDS011;3044;43.232;27.972;2023-07-20T05:58:36;23.87;;;5.93;;
6031;SDS011;3044;43.232;27.972;2023-07-20T06:01:04;21.40;;;6.13;;
6031;SDS011;3044;43.232;27.972;2023-07-20T06:03:32;20.13;;;6.33;;
6031;SDS011;3044;43.232;27.972;2023-07-20T06:05:59;21.57;;;6.53;;
6031;SDS011;3044;43.232;27.972;2023-07-20T06:08:28;26.63;;;6.23;;
6031;SDS011;3044;43.232;27.972;2023-07-20T06:10:56;10.97;;;5.10;;
6031;SDS011;3044;43.232;27.972;2023-07-20T06:13:23;22.40;;;6.43;;
6031;SDS011;3044;43.232;27.972;2023-07-20T06:15:50;30.37;;;6.63;;
6031;SDS011;3044;43.232;27.972;2023-07-20T06:18:17;22.97;;;6.50;;
6031;SDS011;3044;43.232;27.972;2023-07-20T06:20:48;23.97;;;6.97;;
6031;SDS011;3044;43.232;27.972;2023-07-20T06:23:16;32.30;;;7.50;;
6031;SDS011;3044;43.232;27.972;2023-07-20T06:25:45;30.33;;;6.10;;
6031;SDS011;3044;43.232;27.972;2023-07-20T06:28:12;16.07;;;5.87;;
6031;SDS011;3044;43.232;27.972;2023-07-20T06:30:40;31.13;;;6.20;;
6031;SDS011;3044;43.232;27.972;2023-07-20T06:33:07;18.87;;;4.50;;
6031;SDS011;3044;43.232;27.972;2023-07-20T06:35:35;30.50;;;4.43;;
6031;SDS011;3044;43.232;27.972;2023-07-20T06:38:02;18.17;;;4.30;;
6031;SDS011;3044;43.232;27.972;2023-07-20T06:40:29;17.57;;;3.80;;
6031;SDS011;3044;43.232;27.972;2023-07-20T06:42:58;19.70;;;4.60;;
6031;SDS011;3044;43.232;27.972;2023-07-20T06:45:25;13.53;;;3.97;;
6031;SDS011;3044;43.232;27.972;2023-07-20T06:47:52;13.93;;;3.10;;
6031;SDS011;3044;43.232;27.972;2023-07-20T06:50:19;11.53;;;3.00;;
6031;SDS011;3044;43.232;27.972;2023-07-20T06:52:46;18.63;;;3.40;;
6031;SDS011;3044;43.232;27.972;2023-07-20T06:55:13;12.30;;;3.00;;
6031;SDS011;3044;43.232;27.972;2023-07-20T06:57:41;11.13;;;3.03;;
6031;SDS011;3044;43.232;27.972;2023-07-20T07:00:10;11.80;;;3.17;;
6031;SDS011;3044;43.232;27.972;2023-07-20T07:02:38;12.53;;;2.70;;
6031;SDS011;3044;43.232;27.972;2023-07-20T07:05:06;9.67;;;3.30;;
6031;SDS011;3044;43.232;27.972;2023-07-20T07:07:33;5.27;;;2.97;;
6031;SDS011;3044;43.232;27.972;2023-07-20T07:10:00;12.17;;;2.83;;
6031;SDS011;3044;43.232;27.972;2023-07-20T07:12:30;8.73;;;2.80;;
6031;SDS011;3044;43.232;27.972;2023-07-20T07:14:57;11.53;;;3.33;;
6031;SDS011;3044;43.232;27.972;2023-07-20T07:17:26;6.97;;;2.80;;
6031;SDS011;3044;43.232;27.972;2023-07-20T07:19:53;14.17;;;2.80;;
6031;SDS011;3044;43.232;27.972;2023-07-20T07:22:21;24.57;;;3.23;;
6031;SDS011;3044;43.232;27.972;2023-07-20T07:24:48;9.97;;;3.80;;
6031;SDS011;3044;43.232;27.972;2023-07-20T07:27:16;11.03;;;3.20;;
6031;SDS011;3044;43.232;27.972;2023-07-20T07:29:43;5.93;;;2.90;;
6031;SDS011;3044;43.232;27.972;2023-07-20T07:32:10;5.47;;;3.00;;
6031;SDS011;3044;43.232;27.972;2023-07-20T07:34:39;8.83;;;3.07;;
6031;SDS011;3044;43.232;27.972;2023-07-20T07:37:06;11.93;;;3.30;;
6031;SDS011;3044;43.232;27.972;2023-07-20T07:39:33;9.20;;;3.23;;
6031;SDS011;3044;43.232;27.972;2023-07-20T07:42:00;12.47;;;3.53;;
6031;SDS011;3044;43.232;27.972;2023-07-20T07:44:27;15.50;;;3.77;;
6031;SDS011;3044;43.232;27.972;2023-07-20T07:46:55;16.97;;;3.37;;
6031;SDS011;3044;43.232;27.972;2023-07-20T07:49:22;6.37;;;3.00;;
6031;SDS011;3044;43.232;27.972;2023-07-20T07:51:50;9.53;;;3.90;;
6031;SDS011;3044;43.232;27.972;2023-07-20T07:54:17;10.93;;;3.20;;
6031;SDS011;3044;43.232;27.972;2023-07-20T07:56:45;11.80;;;3.93;;
6031;SDS011;3044;43.232;27.972;2023-07-20T07:59:12;11.37;;;3.17;;
6031;SDS011;3044;43.232;27.972;2023-07-20T08:01:39;13.17;;;3.53;;
6031;SDS011;3044;43.232;27.972;2023-07-20T08:04:06;6.60;;;3.43;;
6031;SDS011;3044;43.232;27.972;2023-07-20T08:06:33;10.93;;;2.90;;
6031;SDS011;3044;43.232;27.972;2023-07-20T08:09:02;21.00;;;3.67;;
6031;SDS011;3044;43.232;27.972;2023-07-20T08:11:30;9.60;;;2.80;;
6031;SDS011;3044;43.232;27.972;2023-07-20T08:13:59;12.70;;;3.87;;
6031;SDS011;3044;43.232;27.972;2023-07-20T08:16:26;9.53;;;3.53;;
6031;SDS011;3044;43.232;27.972;2023-07-20T08:18:53;8.13;;;3.47;;
6031;SDS011;3044;43.232;27.972;2023-07-20T08:21:21;9.20;;;3.17;;
6031;SDS011;3044;43.232;27.972;2023-07-20T08:23:49;12.07;;;3.50;;
6031;SDS011;3044;43.232;27.972;2023-07-20T08:26:18;10.73;;;2.80;;
6031;SDS011;3044;43.232;27.972;2023-07-20T08:28:47;9.60;;;2.80;;
6031;SDS011;3044;43.232;27.972;2023-07-20T08:31:14;7.07;;;3.73;;
6031;SDS011;3044;43.232;27.972;2023-07-20T08:33:41;19.53;;;4.07;;
6031;SDS011;3044;43.232;27.972;2023-07-20T08:36:09;5.87;;;2.60;;
6031;SDS011;3044;43.232;27.972;2023-07-20T08:38:36;9.77;;;3.00;;
6031;SDS011;3044;43.232;27.972;2023-07-20T08:41:03;11.23;;;3.10;;
6031;SDS011;3044;43.232;27.972;2023-07-20T08:43:32;12.70;;;3.50;;
6031;SDS011;3044;43.232;27.972;2023-07-20T08:46:00;13.20;;;4.30;;
6031;SDS011;3044;43.232;27.972;2023-07-20T08:48:28;18.97;;;3.77;;
6031;SDS011;3044;43.232;27.972;2023-07-20T08:50:57;10.10;;;3.03;;
6031;SDS011;3044;43.232;27.972;2023-07-20T08:53:25;16.67;;;2.70;;
6031;SDS011;3044;43.232;27.972;2023-07-20T08:55:54;11.90;;;3.20;;
6031;SDS011;3044;43.232;27.972;2023-07-20T08:58:21;9.80;;;3.70;;
6031;SDS011;3044;43.232;27.972;2023-07-20T09:00:54;10.43;;;2.83;;
6031;SDS011;3044;43.232;27.972;2023-07-20T09:03:24;10.87;;;3.17;;
6031;SDS011;3044;43.232;27.972;2023-07-20T09:05:51;15.70;;;3.13;;
6031;SDS011;3044;43.232;27.972;2023-07-20T09:08:18;13.33;;;3.03;;
6031;SDS011;3044;43.232;27.972;2023-07-20T09:10:45;9.37;;;3.27;;
6031;SDS011;3044;43.232;27.972;2023-07-20T09:13:14;18.90;;;4.07;;
6031;SDS011;3044;43.232;27.972;2023-07-20T09:15:45;10.77;;;3.60;;
6031;SDS011;3044;43.232;27.972;2023-07-20T09:18:14;9.23;;;3.40;;
6031;SDS011;3044;43.232;27.972;2023-07-20T09:24:12;14.13;;;3.97;;
6031;SDS011;3044;43.232;27.972;2023-07-20T09:26:42;10.47;;;3.60;;
6031;SDS011;3044;43.232;27.972;2023-07-20T09:29:10;19.47;;;4.40;;
6031;SDS011;3044;43.232;27.972;2023-07-20T09:31:37;14.10;;;4.10;;
6031;SDS011;3044;43.232;27.972;2023-07-20T09:34:06;8.87;;;3.83;;
6031;SDS011;3044;43.232;27.972;2023-07-20T09:36:34;14.70;;;4.70;;
6031;SDS011;3044;43.232;27.972;2023-07-20T09:39:02;6.23;;;3.57;;
6031;SDS011;3044;43.232;27.972;2023-07-20T09:41:30;6.90;;;3.73;;
6031;SDS011;3044;43.232;27.972;2023-07-20T09:44:07;12.23;;;4.47;;
6031;SDS011;3044;43.232;27.972;2023-07-20T09:46:43;16.80;;;4.50;;
6031;SDS011;3044;43.232;27.972;2023-07-20T09:49:13;14.00;;;4.53;;
6031;SDS011;3044;43.232;27.972;2023-07-20T09:51:40;12.53;;;3.53;;
6031;SDS011;3044;43.232;27.972;2023-07-20T09:54:08;10.00;;;4.20;;
6031;SDS011;3044;43.232;27.972;2023-07-20T09:56:38;11.50;;;4.53;;
6031;SDS011;3044;43.232;27.972;2023-07-20T09:59:06;12.10;;;4.87;;
6031;SDS011;3044;43.232;27.972;2023-07-20T10:01:34;31.83;;;5.33;;
6031;SDS011;3044;43.232;27.972;2023-07-20T10:04:02;9.37;;;4.27;;
6031;SDS011;3044;43.232;27.972;2023-07-20T10:06:32;13.50;;;4.63;;
6031;SDS011;3044;43.232;27.972;2023-07-20T10:09:01;11.93;;;3.80;;
6031;SDS011;3044;43.232;27.972;2023-07-20T10:11:31;13.70;;;4.60;;
6031;SDS011;3044;43.232;27.972;2023-07-20T10:14:03;12.17;;;4.23;;
6031;SDS011;3044;43.232;27.972;2023-07-20T10:16:34;21.67;;;3.97;;
6031;SDS011;3044;43.232;27.972;2023-07-20T10:19:03;8.20;;;4.00;;
6031;SDS011;3044;43.232;27.972;2023-07-20T10:21:35;9.93;;;3.67;;
6031;SDS011;3044;43.232;27.972;2023-07-20T10:24:07;8.87;;;3.87;;
6031;SDS011;3044;43.232;27.972;2023-07-20T10:26:36;14.37;;;4.73;;
6031;SDS011;3044;43.232;27.972;2023-07-20T10:29:04;12.43;;;4.13;;
6031;SDS011;3044;43.232;27.972;2023-07-20T10:31:32;9.23;;;4.77;;
6031;SDS011;3044;43.232;27.972;2023-07-20T10:34:00;13.30;;;3.90;;
6031;SDS011;3044;43.232;27.972;2023-07-20T10:36:28;15.63;;;3.97;;
6031;SDS011;3044;43.232;27.972;2023-07-20T10:38:57;9.03;;;4.40;;
6031;SDS011;3044;43.232;27.972;2023-07-20T10:41:29;10.60;;;4.60;;
6031;SDS011;3044;43.232;27.972;2023-07-20T10:44:00;13.73;;;4.07;;
6031;SDS011;3044;43.232;27.972;2023-07-20T10:46:35;21.50;;;5.30;;
6031;SDS011;3044;43.232;27.972;2023-07-20T10:49:10;12.83;;;4.70;;
6031;SDS011;3044;43.232;27.972;2023-07-20T10:51:39;14.03;;;4.37;;
6031;SDS011;3044;43.232;27.972;2023-07-20T10:54:09;11.53;;;4.00;;
6031;SDS011;3044;43.232;27.972;2023-07-20T10:57:24;12.40;;;4.40;;
6031;SDS011;3044;43.232;27.972;2023-07-20T11:00:07;9.57;;;4.20;;
6031;SDS011;3044;43.232;27.972;2023-07-20T11:02:46;5.93;;;3.53;;
6031;SDS011;3044;43.232;27.972;2023-07-20T11:08:12;16.17;;;5.17;;
6031;SDS011;3044;43.232;27.972;2023-07-20T11:13:56;19.10;;;4.47;;
6031;SDS011;3044;43.232;27.972;2023-07-20T11:16:32;13.40;;;4.90;;
6031;SDS011;3044;43.232;27.972;2023-07-20T11:19:02;7.73;;;3.93;;
6031;SDS011;3044;43.232;27.972;2023-07-20T11:21:30;29.17;;;5.67;;
6031;SDS011;3044;43.232;27.972;2023-07-20T11:24:03;16.10;;;3.90;;
6031;SDS011;3044;43.232;27.972;2023-07-20T11:26:40;11.63;;;4.70;;
6031;SDS011;3044;43.232;27.972;2023-07-20T11:29:08;13.00;;;4.67;;
6031;SDS011;3044;43.232;27.972;2023-07-20T11:31:36;11.80;;;4.43;;
6031;SDS011;3044;43.232;27.972;2023-07-20T11:34:04;10.77;;;3.90;;
6031;SDS011;3044;43.232;27.972;2023-07-20T11:36:31;18.27;;;4.70;;
6031;SDS011;3044;43.232;27.972;2023-07-20T11:38:59;13.93;;;4.50;;
6031;SDS011;3044;43.232;27.972;2023-07-20T11:41:29;13.00;;;3.97;;
6031;SDS011;3044;43.232;27.972;2023-07-20T11:43:59;8.63;;;3.67;;
6031;SDS011;3044;43.232;27.972;2023-07-20T11:46:27;11.60;;;4.37;;
6031;SDS011;3044;43.232;27.972;2023-07-20T11:48:56;12.70;;;4.90;;
6031;SDS011;3044;43.232;27.972;2023-07-20T11:51:25;17.70;;;4.33;;
6031;SDS011;3044;43.232;27.972;2023-07-20T11:53:54;24.63;;;4.90;;
6031;SDS011;3044;43.232;27.972;2023-07-20T11:56:22;15.07;;;4.03;;
6031;SDS011;3044;43.232;27.972;2023-07-20T11:58:50;11.13;;;4.47;;
6031;SDS011;3044;43.232;27.972;2023-07-20T12:01:18;24.23;;;5.13;;
6031;SDS011;3044;43.232;27.972;2023-07-20T12:03:46;12.10;;;4.33;;
6031;SDS011;3044;43.232;27.972;2023-07-20T12:06:14;10.43;;;4.07;;
6031;SDS011;3044;43.232;27.972;2023-07-20T12:08:42;12.50;;;4.47;;
6031;SDS011;3044;43.232;27.972;2023-07-20T12:11:10;14.27;;;4.30;;
6031;SDS011;3044;43.232;27.972;2023-07-20T12:13:38;8.40;;;4.13;;
6031;SDS011;3044;43.232;27.972;2023-07-20T12:16:09;13.10;;;3.60;;
6031;SDS011;3044;43.232;27.972;2023-07-20T12:18:39;11.13;;;3.63;;
6031;SDS011;3044;43.232;27.972;2023-07-20T12:21:07;19.53;;;3.67;;
6031;SDS011;3044;43.232;27.972;2023-07-20T12:23:35;12.13;;;4.00;;
6031;SDS011;3044;43.232;27.972;2023-07-20T12:26:04;29.20;;;5.17;;
6031;SDS011;3044;43.232;27.972;2023-07-20T12:28:35;11.53;;;4.30;;
6031;SDS011;3044;43.232;27.972;2023-07-20T12:31:05;14.63;;;6.47;;
6031;SDS011;3044;43.232;27.972;2023-07-20T12:33:32;12.20;;;4.37;;
6031;SDS011;3044;43.232;27.972;2023-07-20T12:36:01;12.27;;;4.50;;
6031;SDS011;3044;43.232;27.972;2023-07-20T12:38:28;13.83;;;4.60;;
6031;SDS011;3044;43.232;27.972;2023-07-20T12:40:56;12.13;;;4.53;;
6031;SDS011;3044;43.232;27.972;2023-07-20T12:43:23;10.97;;;4.63;;
6031;SDS011;3044;43.232;27.972;2023-07-20T12:45:51;9.50;;;4.43;;
6031;SDS011;3044;43.232;27.972;2023-07-20T12:48:18;9.00;;;4.40;;
6031;SDS011;3044;43.232;27.972;2023-07-20T12:50:45;17.07;;;4.10;;
6031;SDS011;3044;43.232;27.972;2023-07-20T12:53:14;7.00;;;3.80;;
6031;SDS011;3044;43.232;27.972;2023-07-20T12:55:41;8.10;;;4.07;;
6031;SDS011;3044;43.232;27.972;2023-07-20T12:58:10;10.37;;;4.33;;
6031;SDS011;3044;43.232;27.972;2023-07-20T13:00:38;10.33;;;4.90;;
6031;SDS011;3044;43.232;27.972;2023-07-20T13:03:06;17.13;;;5.17;;
6031;SDS011;3044;43.232;27.972;2023-07-20T13:05:33;13.70;;;5.20;;
6031;SDS011;3044;43.232;27.972;2023-07-20T13:08:01;11.73;;;4.70;;
6031;SDS011;3044;43.232;27.972;2023-07-20T13:10:32;18.33;;;5.13;;
6031;SDS011;3044;43.232;27.972;2023-07-20T13:12:59;17.07;;;4.53;;
6031;SDS011;3044;43.232;27.972;2023-07-20T13:15:29;16.10;;;4.40;;
6031;SDS011;3044;43.232;27.972;2023-07-20T13:17:58;18.20;;;4.60;;
6031;SDS011;3044;43.232;27.972;2023-07-20T13:20:25;17.73;;;4.53;;
6031;SDS011;3044;43.232;27.972;2023-07-20T13:22:55;11.70;;;5.07;;
6031;SDS011;3044;43.232;27.972;2023-07-20T13:25:22;11.00;;;4.83;;
6031;SDS011;3044;43.232;27.972;2023-07-20T13:27:51;10.40;;;5.07;;
6031;SDS011;3044;43.232;27.972;2023-07-20T13:30:18;9.43;;;5.20;;
6031;SDS011;3044;43.232;27.972;2023-07-20T13:32:46;10.53;;;5.60;;
6031;SDS011;3044;43.232;27.972;2023-07-20T13:35:14;10.47;;;5.43;;
6031;SDS011;3044;43.232;27.972;2023-07-20T13:37:41;11.20;;;6.67;;
6031;SDS011;3044;43.232;27.972;2023-07-20T13:40:09;15.10;;;5.77;;
6031;SDS011;3044;43.232;27.972;2023-07-20T13:42:38;13.33;;;5.20;;
6031;SDS011;3044;43.232;27.972;2023-07-20T13:45:07;8.97;;;4.67;;
6031;SDS011;3044;43.232;27.972;2023-07-20T13:47:35;20.20;;;5.97;;
6031;SDS011;3044;43.232;27.972;2023-07-20T13:50:03;11.70;;;5.60;;
6031;SDS011;3044;43.232;27.972;2023-07-20T13:52:30;17.20;;;5.80;;
6031;SDS011;3044;43.232;27.972;2023-07-20T13:54:57;9.43;;;5.70;;
6031;SDS011;3044;43.232;27.972;2023-07-20T13:57:25;11.63;;;6.20;;
6031;SDS011;3044;43.232;27.972;2023-07-20T13:59:52;11.40;;;6.50;;
6031;SDS011;3044;43.232;27.972;2023-07-20T14:02:20;17.60;;;5.80;;
6031;SDS011;3044;43.232;27.972;2023-07-20T14:04:48;12.13;;;6.10;;
6031;SDS011;3044;43.232;27.972;2023-07-20T14:07:15;12.10;;;6.10;;
6031;SDS011;3044;43.232;27.972;2023-07-20T14:09:42;18.00;;;6.43;;
6031;SDS011;3044;43.232;27.972;2023-07-20T14:12:09;9.37;;;5.70;;
6031;SDS011;3044;43.232;27.972;2023-07-20T14:14:39;6.57;;;5.67;;
6031;SDS011;3044;43.232;27.972;2023-07-20T14:17:07;7.63;;;6.03;;
6031;SDS011;3044;43.232;27.972;2023-07-20T14:19:37;13.47;;;6.37;;
6031;SDS011;3044;43.232;27.972;2023-07-20T14:22:04;15.10;;;6.40;;
6031;SDS011;3044;43.232;27.972;2023-07-20T14:24:32;9.90;;;6.17;;
6031;SDS011;3044;43.232;27.972;2023-07-20T14:26:59;11.60;;;6.17;;
6031;SDS011;3044;43.232;27.972;2023-07-20T14:29:27;10.93;;;6.13;;
6031;SDS011;3044;43.232;27.972;2023-07-20T14:31:57;20.10;;;6.90;;
6031;SDS011;3044;43.232;27.972;2023-07-20T14:34:24;10.20;;;6.53;;
6031;SDS011;3044;43.232;27.972;2023-07-20T14:36:53;14.10;;;6.00;;
6031;SDS011;3044;43.232;27.972;2023-07-20T14:39:20;11.47;;;5.90;;
6031;SDS011;3044;43.232;27.972;2023-07-20T14:41:49;7.50;;;5.80;;
6031;SDS011;3044;43.232;27.972;2023-07-20T14:44:17;18.37;;;7.40;;
6031;SDS011;3044;43.232;27.972;2023-07-20T14:46:45;10.73;;;6.90;;
6031;SDS011;3044;43.232;27.972;2023-07-20T14:49:12;7.60;;;6.50;;
6031;SDS011;3044;43.232;27.972;2023-07-20T14:51:40;8.70;;;6.17;;
6031;SDS011;3044;43.232;27.972;2023-07-20T14:54:12;17.57;;;6.77;;
6031;SDS011;3044;43.232;27.972;2023-07-20T14:56:47;21.53;;;6.67;;
6031;SDS011;3044;43.232;27.972;2023-07-20T14:59:17;6.70;;;6.03;;
6031;SDS011;3044;43.232;27.972;2023-07-20T15:01:45;8.37;;;6.67;;
6031;SDS011;3044;43.232;27.972;2023-07-20T15:04:12;7.07;;;6.47;;
6031;SDS011;3044;43.232;27.972;2023-07-20T15:06:39;6.97;;;6.00;;
6031;SDS011;3044;43.232;27.972;2023-07-20T15:09:07;7.97;;;6.10;;
6031;SDS011;3044;43.232;27.972;2023-07-20T15:11:35;12.57;;;6.63;;